Time;durP1;ratioP1;P1;durP2;ratioP2;P2;SDS_P1;SDS_P2;PMS_P1;PMS_P2;Temp;Humidity;BMP_temperature;BMP_pressure;BME280_temperature;BME280_humidity;BME280_pressure;Samples;Min_cycle;Max_cycle;Signal;HPM_P1;HPM_P2
2023/08/20 00:00:25;;;;;;;22.77;18.15;;;;;;;22.75;86.69;101191.44;2057294;28;20055;-72
2023/08/20 00:01:30;;;;;;;24.20;18.02;;;;;;;22.73;86.68;101188.28;2049245;28;20914;-73
2023/08/20 00:02:37;;;;;;;26.70;18.27;;;;;;;22.74;86.64;101186.31;2050522;28;20031;-73
2023/08/20 00:03:43;;;;;;;26.63;17.70;;;;;;;22.73;86.62;101188.28;2034009;28;20029;-73
2023/08/20 00:04:46;;;;;;;23.35;17.70;;;;;;;22.72;86.67;101183.91;2043104;28;20040;-73
2023/08/20 00:05:53;;;;;;;25.05;18.58;;;;;;;22.71;86.95;101189.75;2049837;28;20987;-73
2023/08/20 00:07:04;;;;;;;28.67;19.80;;;;;;;22.68;86.91;101185.75;2049417;28;20048;-73
2023/08/20 00:08:08;;;;;;;27.05;19.90;;;;;;;22.69;86.87;101187.34;2045761;28;20052;-73
2023/08/20 00:09:11;;;;;;;25.10;18.65;;;;;;;22.70;86.86;101194.44;2041926;28;20032;-73
2023/08/20 00:10:13;;;;;;;30.02;20.58;;;;;;;22.69;86.85;101187.34;2041499;28;20085;-73
2023/08/20 00:11:17;;;;;;;26.30;18.70;;;;;;;22.68;86.98;101189.28;2041543;28;20024;-73
2023/08/20 00:12:23;;;;;;;28.00;19.58;;;;;;;22.68;87.04;101196.72;2049519;28;20031;-72
2023/08/20 00:13:28;;;;;;;26.00;19.08;;;;;;;22.67;87.03;101186.91;2041217;29;20035;-73
2023/08/20 00:15:04;;;;;;;25.67;18.65;;;;;;;22.67;87.03;101195.13;2041392;28;20163;-73
2023/08/20 00:16:06;;;;;;;25.23;18.25;;;;;;;22.66;87.06;101193.53;2028015;29;20040;-72
2023/08/20 00:17:10;;;;;;;25.27;18.52;;;;;;;22.65;86.92;101191.94;2041668;28;20033;-73
2023/08/20 00:18:16;;;;;;;27.38;18.90;;;;;;;22.64;86.96;101193.09;2048945;28;20030;-73
2023/08/20 00:19:21;;;;;;;23.35;17.85;;;;;;;22.65;86.92;101194.66;2041672;28;20040;-72
2023/08/20 00:20:27;;;;;;;24.48;18.00;;;;;;;22.63;86.65;101191.47;2042173;28;20970;-72
2023/08/20 00:21:36;;;;;;;25.75;18.13;;;;;;;22.62;86.77;101189.88;2049823;28;20055;-73
2023/08/20 00:22:45;;;;;;;23.50;17.20;;;;;;;22.63;86.56;101188.72;2049373;28;20146;-72
2023/08/20 00:23:47;;;;;;;25.40;17.65;;;;;;;22.61;86.62;101196.50;2057110;28;20142;-72
2023/08/20 00:24:53;;;;;;;23.63;18.70;;;;;;;22.61;86.64;101196.50;2041154;29;20070;-71
2023/08/20 00:25:56;;;;;;;22.58;17.42;;;;;;;22.59;86.80;101190.56;2027358;28;20061;-72
2023/08/20 00:26:57;;;;;;;23.45;17.98;;;;;;;22.59;86.81;101198.78;2033906;28;20156;-72
2023/08/20 00:28:04;;;;;;;23.08;18.08;;;;;;;22.60;86.75;101200.38;2042359;28;20799;-72
2023/08/20 00:29:10;;;;;;;24.88;18.55;;;;;;;22.57;86.94;101196.41;2050322;28;20032;-73
2023/08/20 00:30:13;;;;;;;25.55;18.25;;;;;;;22.57;86.71;101201.06;2051528;28;20028;-72
2023/08/20 00:31:14;;;;;;;27.38;17.30;;;;;;;22.57;86.68;101190.09;2058249;28;20150;-72
2023/08/20 00:32:20;;;;;;;23.90;17.98;;;;;;;22.55;86.71;101192.41;2066562;28;20039;-72
2023/08/20 00:33:23;;;;;;;24.35;18.20;;;;;;;22.54;86.56;101190.78;2050641;28;20040;-72
2023/08/20 00:34:30;;;;;;;25.58;17.75;;;;;;;22.53;86.61;101187.25;2051418;28;20979;-72
2023/08/20 00:35:32;;;;;;;24.10;17.88;;;;;;;22.52;86.77;101182.94;2058524;28;20086;-73
2023/08/20 00:36:35;;;;;;;25.23;17.70;;;;;;;22.52;86.67;101187.63;2050854;28;20040;-72
2023/08/20 00:37:36;;;;;;;24.45;18.00;;;;;;;22.51;86.75;101186.81;2050509;28;20166;-73
2023/08/20 00:38:38;;;;;;;22.90;16.88;;;;;;;22.46;86.98;101176.09;2058641;28;20976;-73
2023/08/20 00:39:43;;;;;;;24.73;17.60;;;;;;;22.49;87.12;101186.34;2058426;28;20042;-74
2023/08/20 00:40:47;;;;;;;26.67;19.30;;;;;;;22.50;87.26;101190.69;2051085;28;20035;-73
2023/08/20 00:41:53;;;;;;;23.92;18.02;;;;;;;22.46;87.21;101175.28;2051592;28;20032;-72
2023/08/20 00:43:06;;;;;;;23.45;17.48;;;;;;;22.47;87.29;101180.41;2052023;28;20103;-73
2023/08/20 00:44:10;;;;;;;27.20;18.25;;;;;;;22.48;87.32;101178.47;2059872;28;20028;-73
2023/08/20 00:45:16;;;;;;;24.77;18.25;;;;;;;22.48;87.27;101181.19;2058478;28;20035;-72
2023/08/20 00:46:21;;;;;;;25.92;17.73;;;;;;;22.47;87.21;101174.13;2051218;28;20795;-72
2023/08/20 00:47:22;;;;;;;23.65;17.38;;;;;;;22.47;87.18;101176.88;2058746;28;20044;-71
2023/08/20 00:48:26;;;;;;;21.40;16.90;;;;;;;22.43;87.18;101174.81;2058344;28;20023;-72
2023/08/20 00:49:31;;;;;;;22.85;17.05;;;;;;;22.45;87.17;101179.97;2059051;28;20068;-72
2023/08/20 00:50:34;;;;;;;25.73;18.05;;;;;;;22.44;87.13;101181.88;2066548;28;21141;-72
2023/08/20 00:51:39;;;;;;;23.40;17.15;;;;;;;22.43;87.29;101183.03;2064027;28;20043;-72
2023/08/20 00:52:43;;;;;;;22.40;17.23;;;;;;;22.43;87.13;101185.78;2036695;29;20032;-72
2023/08/20 00:53:47;;;;;;;22.63;18.10;;;;;;;22.43;87.26;101185.00;2027602;28;20041;-72
2023/08/20 00:54:55;;;;;;;22.52;17.48;;;;;;;22.41;87.18;101188.09;2042808;28;20039;-72
2023/08/20 00:56:02;;;;;;;25.33;18.88;;;;;;;22.42;87.26;101186.94;2054056;28;20174;-72
2023/08/20 00:57:04;;;;;;;24.25;17.80;;;;;;;22.41;87.18;101185.34;2050936;28;20099;-72
2023/08/20 00:58:07;;;;;;;25.35;19.25;;;;;;;22.41;87.09;101185.34;2044005;28;20737;-73
2023/08/20 00:59:08;;;;;;;25.58;18.00;;;;;;;22.40;87.17;101188.41;2035454;29;20040;-73
2023/08/20 01:00:13;;;;;;;23.42;17.67;;;;;;;22.38;87.24;101183.28;2034452;28;20775;-73
2023/08/20 01:01:17;;;;;;;27.58;17.60;;;;;;;22.38;87.38;101187.94;2042516;28;20031;-73
2023/08/20 01:02:19;;;;;;;24.38;18.05;;;;;;;22.38;87.38;101185.22;2042799;28;20035;-73
2023/08/20 01:03:26;;;;;;;25.05;18.05;;;;;;;22.35;87.42;101183.97;2050530;28;20048;-73
2023/08/20 01:04:29;;;;;;;24.25;17.63;;;;;;;22.34;87.45;101178.81;2050901;28;20135;-73
2023/08/20 01:05:48;;;;;;;25.02;17.92;;;;;;;22.34;87.53;101182.34;2055406;28;20130;-73
2023/08/20 01:07:01;;;;;;;23.80;16.98;;;;;;;22.35;87.55;101180.41;2041797;28;20802;-73
2023/08/20 01:08:09;;;;;;;22.10;16.63;;;;;;;22.34;87.58;101182.34;2041829;28;20041;-73
2023/08/20 01:09:18;;;;;;;22.88;18.25;;;;;;;22.34;87.60;101179.63;2048671;28;20958;-73
2023/08/20 01:10:48;;;;;;;23.33;17.67;;;;;;;22.34;87.59;101179.63;2066480;28;20035;-73
2023/08/20 01:11:58;;;;;;;22.67;17.58;;;;;;;22.33;87.67;101175.28;2061734;28;20121;-72
2023/08/20 01:13:04;;;;;;;24.52;16.25;;;;;;;22.34;87.58;101182.34;2047498;28;20047;-73
2023/08/20 01:14:15;;;;;;;25.23;18.38;;;;;;;22.35;87.89;101183.16;2053919;28;20038;-71
2023/08/20 01:15:19;;;;;;;24.17;18.67;;;;;;;22.35;87.79;101181.25;2048356;28;20775;-71
2023/08/20 01:16:26;;;;;;;22.48;16.88;;;;;;;22.32;87.75;101170.97;2034509;29;20995;-72
2023/08/20 01:17:29;;;;;;;22.50;17.02;;;;;;;22.34;87.68;101185.09;2036668;28;20037;-71
2023/08/20 01:18:33;;;;;;;22.33;16.33;;;;;;;22.34;87.42;101176.09;2042523;28;20036;-71
2023/08/20 01:19:35;;;;;;;26.75;17.83;;;;;;;22.33;87.62;101185.47;2034397;28;20033;-71
2023/08/20 01:20:44;;;;;;;25.80;17.50;;;;;;;22.34;87.69;101179.63;2050252;28;21283;-71
2023/08/20 01:22:26;;;;;;;21.75;17.88;;;;;;;22.33;87.74;101174.50;2066400;28;20035;-72
2023/08/20 01:23:33;;;;;;;23.50;17.65;;;;;;;22.33;87.61;101178.03;2041159;29;20036;-72
2023/08/20 01:24:49;;;;;;;24.10;17.27;;;;;;;22.33;87.45;101189.00;2049671;28;20139;-72
2023/08/20 01:26:25;;;;;;;19.77;16.35;;;;;;;22.35;87.52;101188.63;2058509;28;20110;-72
2023/08/20 01:27:46;;;;;;;22.20;16.58;;;;;;;22.33;87.33;101186.25;2050008;28;20131;-72
2023/08/20 01:28:48;;;;;;;23.33;17.60;;;;;;;22.30;86.98;101186.13;2052268;28;20901;-71
2023/08/20 01:29:53;;;;;;;28.80;17.17;;;;;;;22.31;86.93;101187.72;2050309;28;20079;-71
2023/08/20 01:31:00;;;;;;;22.98;17.02;;;;;;;22.31;87.05;101190.47;2050330;28;20150;-71
2023/08/20 01:32:04;;;;;;;21.45;16.48;;;;;;;22.28;87.16;101186.47;2050668;28;20032;-71
2023/08/20 01:33:08;;;;;;;21.88;16.80;;;;;;;22.29;87.29;101185.34;2042479;28;20891;-71
2023/08/20 01:34:18;;;;;;;20.80;16.38;;;;;;;22.28;87.34;101181.00;2043861;28;20028;-71
2023/08/20 01:35:26;;;;;;;22.67;16.83;;;;;;;22.29;87.28;101184.53;2051655;28;20023;-71
2023/08/20 01:36:38;;;;;;;21.73;17.38;;;;;;;22.27;87.60;101182.13;2058400;28;20016;-71
2023/08/20 01:37:44;;;;;;;29.65;18.60;;;;;;;22.27;87.45;101184.88;2049782;28;20035;-72
2023/08/20 01:38:45;;;;;;;28.50;19.95;;;;;;;22.25;87.37;101184.41;2042738;28;20114;-72
2023/08/20 01:39:49;;;;;;;24.33;17.75;;;;;;;22.25;87.40;101184.41;2034117;29;20029;-74
2023/08/20 01:40:52;;;;;;;26.75;19.67;;;;;;;22.27;87.71;101184.09;2035749;28;20845;-74
2023/08/20 01:41:52;;;;;;;22.98;17.98;;;;;;;22.26;87.81;101180.56;2050124;28;20036;-73
2023/08/20 01:42:54;;;;;;;25.58;18.25;;;;;;;22.26;87.80;101179.72;2058226;28;20039;-73
2023/08/20 01:43:58;;;;;;;23.52;18.20;;;;;;;22.26;87.87;101180.56;2066004;28;20034;-74
2023/08/20 01:45:01;;;;;;;24.80;17.38;;;;;;;22.24;87.75;101177.34;2058115;28;20056;-74
2023/08/20 01:46:04;;;;;;;23.77;18.35;;;;;;;22.25;87.73;101178.13;2058164;28;20118;-73
2023/08/20 01:47:10;;;;;;;25.90;17.77;;;;;;;22.25;87.79;101181.69;2057845;28;20039;-73
2023/08/20 01:48:14;;;;;;;23.20;17.65;;;;;;;22.26;87.80;101177.81;2058709;28;20851;-73
2023/08/20 01:49:19;;;;;;;24.60;17.90;;;;;;;22.25;87.91;101184.41;2042061;29;20032;-71
2023/08/20 01:50:21;;;;;;;26.30;18.42;;;;;;;22.25;87.81;101183.63;2043152;28;20067;-71
2023/08/20 01:51:25;;;;;;;24.23;17.23;;;;;;;22.24;87.77;101185.56;2058036;28;20119;-72
2023/08/20 01:52:29;;;;;;;20.92;16.75;;;;;;;22.24;87.76;101188.31;2050206;28;20878;-72
2023/08/20 01:53:33;;;;;;;23.60;16.83;;;;;;;22.24;87.55;101184.78;2050777;28;20031;-73
2023/08/20 01:54:37;;;;;;;20.58;16.42;;;;;;;22.24;87.48;101193.00;2050077;28;20036;-72
2023/08/20 01:55:41;;;;;;;24.02;17.33;;;;;;;22.23;87.35;101191.41;2050101;28;20047;-72
2023/08/20 01:56:46;;;;;;;21.13;16.15;;;;;;;22.23;87.15;101186.72;2049900;28;20881;-71
2023/08/20 01:57:51;;;;;;;22.55;17.05;;;;;;;22.24;87.28;101193.00;2058672;28;20027;-72
2023/08/20 01:58:52;;;;;;;22.38;16.60;;;;;;;22.23;87.23;101192.19;2057223;28;20030;-71
2023/08/20 01:59:55;;;;;;;22.20;17.17;;;;;;;22.21;87.09;101189.00;2034433;28;20032;-72
2023/08/20 02:00:56;;;;;;;23.02;16.63;;;;;;;22.20;87.18;101182.72;2042190;28;20032;-72
2023/08/20 02:01:58;;;;;;;22.40;17.10;;;;;;;22.20;87.02;101184.66;2058160;28;21025;-75
2023/08/20 02:03:00;;;;;;;21.55;17.00;;;;;;;22.18;86.87;101184.19;2057721;28;20138;-75
2023/08/20 02:04:04;;;;;;;24.48;17.70;;;;;;;22.18;86.97;101184.19;2058342;28;20028;-74
2023/08/20 02:05:06;;;;;;;23.75;17.02;;;;;;;22.15;87.06;101185.63;2049840;28;20145;-74
2023/08/20 02:06:10;;;;;;;21.13;16.30;;;;;;;22.15;87.02;101184.84;2034304;28;20879;-73
2023/08/20 02:07:20;;;;;;;21.00;16.35;;;;;;;22.12;87.15;101175.38;2044395;28;20084;-73
2023/08/20 02:08:24;;;;;;;26.60;18.75;;;;;;;22.13;87.09;101181.63;2036019;28;20067;-73
2023/08/20 02:09:31;;;;;;;24.15;18.45;;;;;;;22.11;87.29;101173.78;2035560;28;20820;-73
2023/08/20 02:10:36;;;;;;;27.10;18.55;;;;;;;22.11;87.26;101178.47;2049558;28;20147;-73
2023/08/20 02:11:40;;;;;;;26.25;18.55;;;;;;;22.09;87.34;101173.31;2042747;28;20035;-74
2023/08/20 02:12:47;;;;;;;24.73;18.15;;;;;;;22.09;87.30;101176.03;2049686;28;20158;-74
2023/08/20 02:13:52;;;;;;;26.92;18.55;;;;;;;22.08;87.45;101179.16;2051170;28;20785;-72
2023/08/20 02:14:56;;;;;;;23.10;17.33;;;;;;;22.08;87.58;101176.41;2057240;28;20794;-72
2023/08/20 02:16:02;;;;;;;25.15;17.65;;;;;;;22.08;87.67;101174.47;2034347;29;20033;-72
2023/08/20 02:17:05;;;;;;;26.90;18.05;;;;;;;22.08;87.54;101181.88;2042324;28;20040;-72
2023/08/20 02:18:11;;;;;;;23.08;18.02;;;;;;;22.08;87.56;101184.63;2050730;28;20152;-72
2023/08/20 02:19:18;;;;;;;25.95;19.08;;;;;;;22.08;87.44;101184.63;2049849;28;20032;-72
2023/08/20 02:20:22;;;;;;;27.02;18.70;;;;;;;22.08;87.39;101184.63;2034379;29;20139;-71
2023/08/20 02:21:24;;;;;;;22.42;17.35;;;;;;;22.07;87.41;101183.00;2034750;28;20081;-74
2023/08/20 02:22:29;;;;;;;24.60;17.13;;;;;;;22.04;87.44;101178.22;2049789;28;20146;-73
2023/08/20 02:23:31;;;;;;;23.83;17.40;;;;;;;22.06;87.54;101186.88;2047301;28;20130;-73
2023/08/20 02:24:35;;;;;;;21.75;16.80;;;;;;;22.06;87.48;101190.41;2050295;28;20043;-73
2023/08/20 02:25:43;;;;;;;22.65;16.42;;;;;;;22.05;87.50;101185.31;2058470;28;20894;-73
2023/08/20 02:26:45;;;;;;;21.30;16.63;;;;;;;22.03;87.24;101185.63;2058001;28;20035;-72
2023/08/20 02:27:51;;;;;;;20.98;16.50;;;;;;;22.04;87.13;101184.50;2057707;28;20023;-73
2023/08/20 02:28:57;;;;;;;22.80;16.95;;;;;;;22.02;86.99;101180.50;2057996;28;20049;-73
2023/08/20 02:30:03;;;;;;;23.48;16.70;;;;;;;22.01;87.11;101173.44;2057663;28;20070;-73
2023/08/20 02:31:05;;;;;;;21.90;16.35;;;;;;;22.01;86.96;101173.44;2057556;28;20082;-73
2023/08/20 02:32:11;;;;;;;24.83;18.30;;;;;;;21.99;86.96;101174.56;2034580;29;20163;-74
2023/08/20 02:33:12;;;;;;;19.73;15.90;;;;;;;21.98;86.98;101175.72;2027028;28;20037;-74
2023/08/20 02:34:15;;;;;;;22.35;15.93;;;;;;;21.96;86.83;101174.44;2033834;28;20088;-75
2023/08/20 02:35:17;;;;;;;20.38;15.95;;;;;;;21.97;86.82;101174.13;2034484;28;20044;-74
2023/08/20 02:36:18;;;;;;;23.05;16.48;;;;;;;21.96;86.81;101180.72;2026393;29;20029;-75
2023/08/20 02:37:20;;;;;;;20.30;15.38;;;;;;;21.94;86.81;101169.31;2042272;28;20040;-74
2023/08/20 02:38:25;;;;;;;20.92;16.10;;;;;;;21.92;86.81;101170.81;2065770;28;20042;-74
2023/08/20 02:39:28;;;;;;;19.17;15.77;;;;;;;21.91;86.70;101161.78;2056876;28;20035;-74
2023/08/20 02:40:30;;;;;;;21.52;16.73;;;;;;;21.91;86.72;101169.19;2049958;28;20035;-75
2023/08/20 02:41:32;;;;;;;21.98;15.63;;;;;;;21.90;86.66;101168.38;2057776;28;20071;-73
2023/08/20 02:42:37;;;;;;;22.45;16.90;;;;;;;21.89;86.71;101166.78;2057890;28;20046;-73
2023/08/20 02:43:40;;;;;;;19.20;15.98;;;;;;;21.79;86.82;101156.28;2042310;28;20100;-75
2023/08/20 02:44:45;;;;;;;19.67;15.65;;;;;;;21.87;86.74;101168.28;2042753;28;20060;-74
2023/08/20 02:45:47;;;;;;;19.13;15.13;;;;;;;21.85;86.69;101165.88;2050195;28;20047;-74
2023/08/20 02:46:49;;;;;;;20.52;15.90;;;;;;;21.86;86.70;101167.47;2033980;29;20032;-73
2023/08/20 02:47:50;;;;;;;19.05;15.27;;;;;;;21.86;86.77;101166.69;2026275;28;20033;-73
2023/08/20 02:48:56;;;;;;;20.92;16.02;;;;;;;21.85;86.81;101170.56;2042311;28;20208;-73
2023/08/20 02:49:58;;;;;;;22.65;16.23;;;;;;;21.84;86.82;101160.75;2042111;28;20044;-73
2023/08/20 02:50:59;;;;;;;19.98;15.13;;;;;;;21.84;86.85;101168.94;2041083;28;20036;-72
2023/08/20 02:52:02;;;;;;;20.42;14.77;;;;;;;21.83;86.70;101159.94;2050063;28;20859;-74
2023/08/20 02:53:09;;;;;;;18.33;14.73;;;;;;;21.81;86.66;101159.47;2042275;28;20168;-74
2023/08/20 02:54:10;;;;;;;18.60;14.73;;;;;;;21.82;86.64;101163.84;2042647;28;20032;-73
2023/08/20 02:55:19;;;;;;;20.75;14.85;;;;;;;21.82;86.60;101163.84;2057808;28;20035;-74
2023/08/20 02:56:24;;;;;;;19.58;15.13;;;;;;;21.82;86.53;101166.56;2057502;28;20040;-74
2023/08/20 02:57:26;;;;;;;20.65;15.80;;;;;;;21.81;86.42;101164.94;2050263;28;20039;-73
2023/08/20 02:58:33;;;;;;;19.50;15.15;;;;;;;21.81;86.45;101158.69;2050513;28;20142;-73
2023/08/20 02:59:40;;;;;;;20.60;15.77;;;;;;;21.80;86.44;101166.09;2043244;28;20122;-73
2023/08/20 03:00:44;;;;;;;22.38;16.55;;;;;;;21.80;86.72;101168.84;2050343;28;20856;-71
2023/08/20 03:01:48;;;;;;;24.33;17.08;;;;;;;21.77;86.90;101155.81;2049874;28;20051;-73
2023/08/20 03:02:58;;;;;;;21.75;15.80;;;;;;;21.79;87.00;101169.97;2051268;28;20052;-73
2023/08/20 03:04:00;;;;;;;21.50;16.50;;;;;;;21.78;86.97;101154.69;2057644;28;20157;-73
2023/08/20 03:05:05;;;;;;;22.38;17.05;;;;;;;21.80;87.12;101162.56;2049308;28;20137;-72
2023/08/20 03:06:07;;;;;;;21.85;15.60;;;;;;;21.79;87.10;101159.03;2026194;29;20868;-72
2023/08/20 03:07:12;;;;;;;23.70;16.27;;;;;;;21.79;87.29;101161.78;2042847;28;20028;-73
2023/08/20 03:08:15;;;;;;;19.83;15.80;;;;;;;21.77;87.23;101164.03;2059059;28;20059;-73
2023/08/20 03:09:19;;;;;;;22.95;16.30;;;;;;;21.76;87.16;101162.44;2049537;28;20787;-73
2023/08/20 03:10:21;;;;;;;20.75;15.43;;;;;;;21.77;87.16;101160.50;2041913;28;20127;-73
2023/08/20 03:11:26;;;;;;;20.33;15.15;;;;;;;21.75;87.22;101158.09;2041663;28;20043;-73
2023/08/20 03:12:31;;;;;;;20.65;15.73;;;;;;;21.74;86.99;101153.78;2042168;28;20020;-72
2023/08/20 03:13:37;;;;;;;24.48;15.93;;;;;;;21.73;87.28;101160.38;2041821;28;20761;-73
2023/08/20 03:14:39;;;;;;;23.80;17.15;;;;;;;21.72;87.03;101156.03;2056696;28;20793;-73
2023/08/20 03:15:41;;;;;;;24.50;17.35;;;;;;;21.72;87.15;101161.50;2049407;28;20039;-72
2023/08/20 03:16:43;;;;;;;24.27;17.40;;;;;;;21.73;87.51;101152.97;2033162;29;20128;-72
2023/08/20 03:17:45;;;;;;;24.98;17.65;;;;;;;21.73;87.65;101161.19;2041441;28;20049;-71
2023/08/20 03:18:47;;;;;;;25.73;17.42;;;;;;;21.73;87.89;101163.13;2041575;28;20771;-72
2023/08/20 03:19:57;;;;;;;22.90;16.83;;;;;;;21.73;87.92;101163.13;2049927;28;20091;-72
2023/08/20 03:20:59;;;;;;;26.90;17.08;;;;;;;21.73;88.07;101168.59;2057484;28;20058;-71
2023/08/20 03:22:01;;;;;;;23.45;17.15;;;;;;;21.73;88.13;101168.59;2049387;28;20050;-71
2023/08/20 03:23:03;;;;;;;26.10;17.45;;;;;;;21.71;88.37;101170.88;2050908;28;20970;-71
2023/08/20 03:24:09;;;;;;;22.50;17.35;;;;;;;21.71;88.30;101170.88;2065498;28;20034;-71
2023/08/20 03:25:11;;;;;;;22.48;16.73;;;;;;;21.71;88.60;101171.66;2057355;28;20046;-71
2023/08/20 03:26:14;;;;;;;30.13;18.00;;;;;;;21.72;88.60;101172.47;2057577;28;20740;-71
2023/08/20 03:27:16;;;;;;;26.38;18.83;;;;;;;21.72;88.74;101166.97;2065414;28;20039;-71
2023/08/20 03:28:22;;;;;;;23.13;17.20;;;;;;;21.71;88.92;101165.41;2041254;28;20044;-71
2023/08/20 03:29:24;;;;;;;22.98;17.55;;;;;;;21.72;88.96;101167.81;2027343;28;20865;-71
2023/08/20 03:30:27;;;;;;;26.02;18.20;;;;;;;21.71;89.11;101171.66;2049806;28;20040;-71
2023/08/20 03:31:37;;;;;;;24.15;18.55;;;;;;;21.70;89.19;101163.81;2056556;28;20134;-71
2023/08/20 03:32:43;;;;;;;24.17;17.20;;;;;;;21.72;89.28;101175.19;2041476;29;20031;-72
2023/08/20 03:33:45;;;;;;;30.10;20.13;;;;;;;21.71;89.13;101174.41;2034193;28;20029;-71
2023/08/20 03:34:46;;;;;;;25.73;17.83;;;;;;;21.73;89.44;101172.13;2049349;28;20043;-72
2023/08/20 03:35:52;;;;;;;25.65;18.60;;;;;;;21.71;89.54;101170.88;2041336;29;20938;-71
2023/08/20 03:36:54;;;;;;;25.65;20.08;;;;;;;21.70;89.45;101175.53;2041534;28;20897;-72
2023/08/20 03:37:59;;;;;;;27.65;18.77;;;;;;;21.74;89.74;101181.13;2041621;29;20052;-72
2023/08/20 03:39:03;;;;;;;24.23;18.08;;;;;;;21.74;89.82;101175.66;2035435;28;20251;-72
2023/08/20 03:40:10;;;;;;;22.77;17.17;;;;;;;21.73;90.04;101174.06;2033296;29;20044;-72
2023/08/20 03:41:12;;;;;;;24.02;16.88;;;;;;;21.73;90.13;101174.06;2042425;28;20071;-72
2023/08/20 03:42:15;;;;;;;23.80;17.77;;;;;;;21.71;89.98;101165.41;2041249;28;20042;-72
2023/08/20 03:43:20;;;;;;;22.45;17.02;;;;;;;21.74;89.97;101178.41;2049503;28;20031;-71
2023/08/20 03:44:26;;;;;;;25.10;17.83;;;;;;;21.74;89.83;101172.94;2048933;28;20040;-72
2023/08/20 03:45:30;;;;;;;23.00;16.90;;;;;;;21.74;89.90;101173.72;2034317;29;20067;-71
2023/08/20 03:46:37;;;;;;;20.77;15.95;;;;;;;21.74;89.72;101176.47;2041178;29;20031;-71
2023/08/20 03:47:43;;;;;;;24.85;16.67;;;;;;;21.75;89.46;101180.81;2042891;28;20987;-71
2023/08/20 03:48:46;;;;;;;23.17;16.60;;;;;;;21.74;89.38;101175.66;2057499;28;20043;-71
2023/08/20 03:49:50;;;;;;;27.17;17.70;;;;;;;21.73;89.22;101174.06;2057481;28;20046;-71
2023/08/20 03:50:52;;;;;;;23.67;17.27;;;;;;;21.74;89.26;101181.13;2049417;28;20938;-71
2023/08/20 03:51:58;;;;;;;22.80;16.23;;;;;;;21.73;89.07;101179.56;2041864;28;20029;-71
2023/08/20 03:53:00;;;;;;;21.33;16.42;;;;;;;21.72;89.08;101177.94;2033659;29;20303;-71
2023/08/20 03:54:07;;;;;;;23.10;16.67;;;;;;;21.73;89.00;101179.56;2027290;29;20033;-71
2023/08/20 03:55:12;;;;;;;22.77;16.58;;;;;;;21.74;88.88;101189.34;2025930;29;20812;-71
2023/08/20 03:56:14;;;;;;;23.70;16.75;;;;;;;21.72;89.17;101177.94;2034394;28;20861;-71
2023/08/20 03:57:19;;;;;;;26.10;17.08;;;;;;;21.74;88.84;101190.16;2049064;28;20048;-71
2023/08/20 03:58:20;;;;;;;23.85;16.70;;;;;;;21.74;89.04;101192.09;2026002;29;20029;-71
2023/08/20 03:59:24;;;;;;;19.52;15.80;;;;;;;21.75;88.86;101194.50;2034943;28;20047;-71
2023/08/20 04:00:29;;;;;;;20.95;16.15;;;;;;;21.73;89.00;101183.09;2033312;29;20033;-72
2023/08/20 04:01:37;;;;;;;19.05;15.57;;;;;;;21.75;88.94;101188.19;2027078;28;20047;-73
2023/08/20 04:02:41;;;;;;;23.65;16.38;;;;;;;21.76;88.79;101189.81;2041141;29;20040;-72
2023/08/20 04:03:45;;;;;;;23.25;17.20;;;;;;;21.77;88.70;101187.88;2034405;28;20052;-72
2023/08/20 04:04:51;;;;;;;24.10;17.05;;;;;;;21.76;88.72;101184.34;2049982;28;20051;-72
2023/08/20 04:05:58;;;;;;;26.40;17.35;;;;;;;21.77;88.86;101182.41;2048780;28;20070;-72
2023/08/20 04:07:00;;;;;;;24.95;18.42;;;;;;;21.78;88.89;101187.53;2057352;28;20031;-72
2023/08/20 04:08:02;;;;;;;25.05;18.38;;;;;;;21.79;88.97;101182.88;2049069;28;20886;-72
2023/08/20 04:09:05;;;;;;;28.02;18.65;;;;;;;21.80;89.24;101188.00;2033018;29;20182;-72
2023/08/20 04:10:10;;;;;;;25.38;18.55;;;;;;;21.82;89.48;101187.66;2033789;29;20951;-71
2023/08/20 04:11:12;;;;;;;27.40;18.20;;;;;;;21.83;89.82;101184.59;2033657;29;20040;-72
2023/08/20 04:12:15;;;;;;;24.73;18.35;;;;;;;21.85;89.87;101189.72;2040981;29;20044;-72
2023/08/20 04:13:20;;;;;;;23.75;18.10;;;;;;;21.87;89.91;101190.97;2033059;29;20055;-72
2023/08/20 04:14:26;;;;;;;22.83;17.95;;;;;;;21.91;90.39;101191.91;2034121;29;20067;-72
2023/08/20 04:15:30;;;;;;;25.10;18.58;;;;;;;21.93;90.65;101188.81;2034211;29;20032;-72
2023/08/20 04:16:34;;;;;;;22.33;17.42;;;;;;;21.95;90.68;101197.50;2033142;29;20927;-72
2023/08/20 04:17:36;;;;;;;23.98;16.50;;;;;;;21.96;90.85;101188.94;2033651;29;21064;-71
2023/08/20 04:18:38;;;;;;;25.83;18.08;;;;;;;21.98;90.68;101192.13;2041005;28;20040;-72
2023/08/20 04:19:41;;;;;;;24.80;18.23;;;;;;;22.02;90.93;101191.47;2041354;28;20095;-71
2023/08/20 04:20:46;;;;;;;24.67;17.60;;;;;;;22.04;90.96;101191.94;2040903;29;20032;-71
2023/08/20 04:21:47;;;;;;;21.10;16.70;;;;;;;22.06;90.94;101186.88;2033747;29;20151;-71
2023/08/20 04:22:49;;;;;;;21.13;16.52;;;;;;;22.08;90.87;101190.88;2041232;28;20136;-71
2023/08/20 04:23:51;;;;;;;21.02;16.77;;;;;;;22.10;90.87;101183.16;2056564;28;20131;-71
2023/08/20 04:24:58;;;;;;;23.05;17.83;;;;;;;22.10;90.90;101183.16;2048924;28;20031;-71
2023/08/20 04:26:02;;;;;;;21.38;15.93;;;;;;;22.14;90.96;101184.06;2026200;29;20116;-72
2023/08/20 04:27:05;;;;;;;23.83;17.25;;;;;;;22.14;91.13;101175.84;2026920;28;20068;-71
2023/08/20 04:28:09;;;;;;;24.40;17.20;;;;;;;22.22;91.17;101196.06;2040499;29;20147;-73
2023/08/20 04:29:11;;;;;;;22.98;17.10;;;;;;;22.21;91.30;101183.50;2025890;28;20037;-72
2023/08/20 04:30:15;;;;;;;22.65;17.10;;;;;;;22.28;91.29;101199.38;2040232;28;20041;-72
2023/08/20 04:31:20;;;;;;;22.33;17.33;;;;;;;22.28;91.24;101196.63;2040331;28;20032;-72
2023/08/20 04:32:31;;;;;;;28.08;17.58;;;;;;;22.32;91.42;101198.34;2042571;28;20104;-72
2023/08/20 04:33:35;;;;;;;25.90;17.00;;;;;;;22.36;91.56;101201.22;2040522;28;20068;-71
2023/08/20 04:34:40;;;;;;;21.48;16.92;;;;;;;22.38;91.54;101197.00;2047618;28;20752;-71
2023/08/20 04:35:44;;;;;;;22.73;16.35;;;;;;;22.41;91.52;101198.22;2048611;28;20131;-71
2023/08/20 04:36:51;;;;;;;23.92;17.50;;;;;;;22.45;91.49;101199.16;2032228;29;20768;-71
2023/08/20 04:38:02;;;;;;;22.70;15.95;;;;;;;22.50;91.50;101200.84;2044120;28;20151;-71
2023/08/20 04:39:05;;;;;;;19.85;15.80;;;;;;;22.53;91.38;101195.47;2047550;28;20024;-71
2023/08/20 04:40:11;;;;;;;21.00;17.10;;;;;;;22.55;91.32;101198.69;2032926;28;20024;-72
2023/08/20 04:41:16;;;;;;;21.52;15.88;;;;;;;22.59;91.39;101196.84;2033771;28;20029;-72
2023/08/20 04:42:19;;;;;;;20.50;15.77;;;;;;;22.65;91.25;101205.63;2040725;28;20032;-72
2023/08/20 04:43:26;;;;;;;19.23;14.73;;;;;;;22.69;91.34;101203.78;2047967;28;20103;-72
2023/08/20 04:44:31;;;;;;;19.83;14.90;;;;;;;22.74;91.33;101206.31;2055718;28;20976;-72
2023/08/20 04:45:35;;;;;;;20.70;16.55;;;;;;;22.78;91.21;101201.72;2048145;28;20032;-71
2023/08/20 04:46:39;;;;;;;18.13;14.95;;;;;;;22.82;91.02;101196.34;2048570;28;20043;-71
2023/08/20 04:47:41;;;;;;;19.70;15.27;;;;;;;22.85;91.04;101196.44;2047930;28;21073;-71
2023/08/20 04:48:43;;;;;;;20.30;14.82;;;;;;;22.90;90.78;101193.47;2055905;28;20062;-71
2023/08/20 04:49:47;;;;;;;20.40;15.80;;;;;;;22.96;90.52;101196.81;2063332;28;20035;-71
2023/08/20 04:50:51;;;;;;;21.75;15.00;;;;;;;23.03;90.59;101204.44;2047349;28;20054;-72
2023/08/20 04:51:53;;;;;;;22.95;14.85;;;;;;;23.09;90.24;101194.81;2047786;28;20942;-72
2023/08/20 04:52:55;;;;;;;18.52;14.82;;;;;;;23.13;90.07;101199.25;2047454;28;20036;-72
2023/08/20 04:53:57;;;;;;;17.70;14.55;;;;;;;23.21;90.06;101202.22;2039661;28;20155;-72
2023/08/20 04:54:59;;;;;;;19.52;13.93;;;;;;;23.24;89.89;101193.28;2039677;28;20191;-71